Time;durP1;ratioP1;P1;durP2;ratioP2;P2;SDS_P1;SDS_P2;PMS_P1;PMS_P2;Temp;Humidity;BMP_temperature;BMP_pressure;BME280_temperature;BME280_humidity;BME280_pressure;Samples;Min_cycle;Max_cycle;Signal;HPM_P1;HPM_P2
2021/12/01 00:01:06;;;;;;;5.82;3.20;;;10.70;99.90;;;8.74;100.00;99212.34;5069262;28;20076;-94
2021/12/01 00:03:34;;;;;;;4.57;3.03;;;10.70;99.90;;;8.74;100.00;99204.22;5053043;28;20068;-95
2021/12/01 00:06:02;;;;;;;4.10;3.00;;;10.60;99.90;;;8.73;100.00;99208.78;5052592;28;20457;-95
2021/12/01 00:08:30;;;;;;;3.78;2.63;;;10.60;99.90;;;8.72;100.00;99198.13;5052258;28;20065;-94
2021/12/01 00:11:07;;;;;;;5.95;2.90;;;10.60;99.90;;;8.69;100.00;99204.81;5052595;28;20485;-94
2021/12/01 00:13:34;;;;;;;5.45;3.00;;;10.60;99.90;;;8.68;100.00;99203.16;5069911;28;20049;-95
2021/12/01 00:16:02;;;;;;;5.35;2.50;;;10.60;99.90;;;8.67;100.00;99192.50;5051982;28;20048;-96
2021/12/01 00:18:30;;;;;;;4.03;2.38;;;10.60;99.90;;;8.63;100.00;99188.53;5053258;28;20497;-95
2021/12/01 00:20:58;;;;;;;5.05;2.50;;;10.50;99.90;;;8.61;100.00;99186.03;5053205;28;20087;-95
2021/12/01 00:23:26;;;;;;;7.85;2.63;;;10.50;99.90;;;8.61;100.00;99180.59;5068644;28;20045;-95
2021/12/01 00:25:54;;;;;;;3.53;2.40;;;10.50;99.90;;;8.60;100.00;99177.06;5084422;28;20131;-95
2021/12/01 00:28:23;;;;;;;3.88;2.03;;;10.50;99.90;;;8.60;100.00;99174.34;5072420;28;20497;-95
2021/12/01 00:30:52;;;;;;;3.47;2.15;;;10.50;99.90;;;8.61;100.00;99170.56;5072448;28;20048;-95
2021/12/01 00:33:22;;;;;;;3.70;2.10;;;10.50;99.90;;;8.60;100.00;99157.22;5072298;28;20072;-95
2021/12/01 00:35:52;;;;;;;3.25;2.13;;;10.50;99.90;;;8.59;100.00;99150.97;5067754;28;20468;-95
2021/12/01 00:38:19;;;;;;;3.97;1.90;;;10.50;99.90;;;8.59;100.00;99152.84;5061270;28;20059;-95
2021/12/01 00:40:47;;;;;;;5.10;2.20;;;10.50;99.90;;;8.59;100.00;99150.13;5072608;28;20051;-95
2021/12/01 00:43:18;;;;;;;3.92;2.00;;;10.50;99.90;;;8.59;100.00;99145.53;5072671;28;20057;-95
2021/12/01 00:45:54;;;;;;;3.87;2.00;;;10.50;99.90;;;8.59;100.00;99123.84;5072466;28;20051;-95
2021/12/01 00:48:21;;;;;;;3.85;2.20;;;10.40;99.90;;;8.58;100.00;99122.16;5072031;28;20386;-95
2021/12/01 00:50:50;;;;;;;4.05;2.22;;;10.50;99.90;;;8.57;100.00;99120.50;5069429;28;20036;-96
2021/12/01 00:53:17;;;;;;;5.50;2.10;;;10.50;99.90;;;8.57;100.00;99114.25;5071921;28;20094;-95
2021/12/01 00:55:45;;;;;;;3.97;2.38;;;10.50;99.90;;;8.56;100.00;99113.41;5071581;28;20140;-95
2021/12/01 00:58:13;;;;;;;3.72;2.30;;;10.50;99.90;;;8.57;100.00;99108.84;5071395;28;20060;-95
2021/12/01 01:00:43;;;;;;;6.70;2.35;;;10.50;99.90;;;8.59;100.00;99104.88;5068261;28;20099;-95
2021/12/01 01:03:12;;;;;;;3.55;2.22;;;10.50;99.90;;;8.57;100.00;99087.97;5051747;28;20053;-95
2021/12/01 01:05:39;;;;;;;5.93;2.40;;;10.50;99.90;;;8.56;100.00;99097.13;5052376;28;20064;-95
2021/12/01 01:08:07;;;;;;;4.43;2.20;;;10.50;99.90;;;8.56;100.00;99091.72;5051963;28;20045;-95
2021/12/01 01:11:08;;;;;;;3.70;2.10;;;10.50;99.90;;;8.55;100.00;99076.50;5065822;28;20045;-96
2021/12/01 01:16:25;;;;;;;5.28;2.20;;;10.40;99.90;;;8.54;100.00;99072.09;5051345;28;20053;-95
2021/12/01 01:18:59;;;;;;;4.13;2.47;;;10.40;99.90;;;8.53;100.00;99058.75;5053023;28;20056;-95
2021/12/01 01:21:32;;;;;;;4.95;2.45;;;10.40;99.90;;;8.53;100.00;99058.75;5051655;28;20041;-94
2021/12/01 01:24:00;;;;;;;4.10;1.92;;;10.40;99.90;;;8.52;100.00;99052.50;5051624;28;20091;-95
2021/12/01 01:26:28;;;;;;;3.40;2.15;;;10.40;99.90;;;8.53;100.00;99047.91;5051896;28;20555;-95
2021/12/01 01:28:56;;;;;;;3.95;2.10;;;10.30;99.90;;;8.50;100.00;99041.03;5052029;28;20048;-96
2021/12/01 01:31:23;;;;;;;5.95;2.20;;;10.40;99.90;;;8.49;100.00;99036.66;5051825;28;20052;-95
2021/12/01 01:33:52;;;;;;;4.88;2.42;;;10.40;99.90;;;8.47;100.00;99041.44;5068035;28;20043;-95
2021/12/01 01:36:21;;;;;;;6.18;2.38;;;10.40;99.90;;;8.47;100.00;99040.59;5071163;28;20185;-95
2021/12/01 01:38:48;;;;;;;3.63;2.13;;;10.40;99.90;;;8.49;100.00;99041.22;5071293;28;20040;-96
2021/12/01 01:41:16;;;;;;;6.07;2.30;;;10.40;99.90;;;8.50;100.00;99027.47;5071649;28;20059;-95
2021/12/01 01:43:47;;;;;;;5.68;2.53;;;10.30;99.90;;;8.47;100.00;99027.88;5071951;28;20048;-96
2021/12/01 01:46:15;;;;;;;4.28;2.00;;;10.40;99.90;;;8.47;100.00;99022.44;5072069;28;20087;-93
2021/12/01 01:48:50;;;;;;;5.32;2.38;;;10.30;99.90;;;8.50;100.00;99019.34;5071597;28;20045;-95
2021/12/01 01:51:22;;;;;;;5.30;2.40;;;10.30;99.90;;;8.47;100.00;99008.91;5075819;28;20041;-95
2021/12/01 01:53:53;;;;;;;4.57;2.30;;;10.40;99.90;;;8.43;100.00;99004.94;5076028;28;20044;-95
2021/12/01 01:56:21;;;;;;;;;;;10.30;99.90;;;8.43;100.00;99001.41;5076054;28;20680;-95
2021/12/01 01:58:49;;;;;;;4.10;1.98;;;10.30;99.90;;;8.42;100.00;98981.59;5076370;28;20367;-95
2021/12/01 02:01:44;;;;;;;5.43;2.22;;;10.30;99.90;;;8.39;100.00;98990.94;5076025;28;20048;-95
2021/12/01 02:04:18;;;;;;;4.10;2.10;;;10.30;99.90;;;8.38;100.00;98962.16;5075326;28;20128;-95
2021/12/01 02:06:49;;;;;;;3.45;1.98;;;10.30;99.90;;;8.38;100.00;98953.22;5076060;28;20037;-96
2021/12/01 02:09:19;;;;;;;4.30;1.98;;;10.30;99.90;;;8.36;100.00;98961.53;5075505;28;20492;-95
2021/12/01 02:11:47;;;;;;;6.20;1.80;;;10.30;99.90;;;8.40;100.00;98961.97;5077645;28;20039;-95
2021/12/01 02:14:16;;;;;;;5.85;1.73;;;10.30;99.90;;;8.38;100.00;98945.09;5091315;22;20053;-86
2021/12/01 02:16:43;;;;;;;4.15;1.88;;;10.30;99.90;;;8.36;100.00;98944.47;5010220;28;20045;-86
2021/12/01 02:19:11;;;;;;;3.40;1.90;;;10.30;99.90;;;8.35;100.00;98943.59;5015112;28;20046;-86
2021/12/01 02:21:39;;;;;;;3.70;1.95;;;10.30;99.90;;;8.30;100.00;98937.13;5030773;28;20044;-85
2021/12/01 02:24:09;;;;;;;3.47;1.90;;;10.20;99.90;;;8.35;100.00;98937.34;5030610;28;20052;-86
2021/12/01 02:26:39;;;;;;;3.50;1.65;;;10.20;99.90;;;8.32;100.00;98911.50;5030975;28;20490;-86
2021/12/01 02:29:10;;;;;;;3.28;1.80;;;10.20;99.90;;;8.28;100.00;98904.00;5030899;28;20453;-86
2021/12/01 02:31:39;;;;;;;3.10;1.70;;;10.20;99.90;;;8.30;100.00;98901.91;5031003;28;20045;-86
2021/12/01 02:34:10;;;;;;;3.42;1.67;;;10.20;99.90;;;8.30;100.00;98918.16;5030393;28;20073;-86
2021/12/01 02:36:42;;;;;;;3.55;1.90;;;10.10;99.90;;;8.27;100.00;98908.59;5030766;28;20069;-86
2021/12/01 02:39:15;;;;;;;4.50;2.00;;;10.10;99.90;;;8.26;100.00;98889.81;5030607;28;20128;-86
2021/12/01 02:41:44;;;;;;;3.90;1.77;;;10.10;99.90;;;8.25;100.00;98891.72;5030804;28;20144;-86
2021/12/01 02:44:13;;;;;;;2.85;1.65;;;10.00;99.90;;;8.26;100.00;98900.66;5030314;28;20100;-86
2021/12/01 02:46:40;;;;;;;2.90;1.70;;;10.10;99.90;;;8.25;100.00;98891.72;5030423;28;20099;-86
2021/12/01 02:49:08;;;;;;;4.88;1.83;;;10.10;99.90;;;8.28;100.00;98879.59;5030404;28;20045;-86
2021/12/01 02:51:37;;;;;;;5.45;2.05;;;10.10;99.90;;;8.26;100.00;98885.22;5030316;28;20128;-86
2021/12/01 02:54:07;;;;;;;4.88;2.50;;;10.10;99.90;;;8.22;100.00;98878.56;5030351;28;20041;-86
2021/12/01 02:56:36;;;;;;;5.97;2.40;;;10.10;99.90;;;8.20;100.00;98875.22;5028970;28;20145;-86
2021/12/01 02:59:06;;;;;;;5.10;2.60;;;10.10;99.90;;;8.17;100.00;98871.06;5032730;28;20076;-86
2021/12/01 03:01:33;;;;;;;5.30;2.50;;;10.10;99.90;;;8.14;100.00;98871.47;5049275;28;20039;-86
2021/12/01 03:04:01;;;;;;;4.28;2.65;;;10.10;99.90;;;8.14;100.00;98866.06;5049927;28;20625;-86
2021/12/01 03:06:29;;;;;;;6.85;3.15;;;10.10;99.90;;;8.14;100.00;98855.22;5049913;28;20045;-86
2021/12/01 03:08:57;;;;;;;7.22;3.08;;;10.10;99.90;;;8.16;100.00;98855.84;5050068;28;20045;-85
2021/12/01 03:11:26;;;;;;;6.28;3.42;;;10.10;99.90;;;8.16;100.00;98853.13;5049162;28;20119;-86
2021/12/01 03:13:54;;;;;;;6.93;3.55;;;10.10;99.90;;;8.18;100.00;98847.50;5029034;28;20041;-86
2021/12/01 03:16:22;;;;;;;8.73;3.60;;;10.10;99.90;;;8.16;100.00;98842.28;5029682;28;20548;-85
2021/12/01 03:18:50;;;;;;;6.78;4.15;;;10.00;99.90;;;8.16;100.00;98842.28;5029776;28;20080;-86
2021/12/01 03:21:18;;;;;;;5.68;3.65;;;10.10;99.90;;;8.16;100.00;98820.63;5028493;28;20148;-86
2021/12/01 03:23:46;;;;;;;8.10;4.20;;;10.10;99.90;;;8.11;100.00;98822.28;5029816;28;20148;-86
2021/12/01 03:26:13;;;;;;;6.75;4.20;;;10.10;99.90;;;8.13;100.00;98810.22;5029385;28;20065;-86
2021/12/01 03:28:42;;;;;;;7.28;4.45;;;10.10;99.90;;;8.12;100.00;98813.97;5029808;28;20049;-86
2021/12/01 03:31:10;;;;;;;6.15;3.97;;;10.00;99.90;;;8.11;100.00;98808.75;5029276;28;20060;-86
2021/12/01 03:33:37;;;;;;;7.80;4.65;;;10.00;99.90;;;8.10;100.00;98794.38;5029631;28;20072;-86
2021/12/01 03:36:05;;;;;;;6.72;4.22;;;10.00;99.90;;;8.06;100.00;98803.97;5029140;28;20160;-86
2021/12/01 03:38:32;;;;;;;8.40;4.72;;;10.00;99.90;;;8.04;100.00;98800.66;5029544;28;20132;-86
2021/12/01 03:41:00;;;;;;;6.88;4.70;;;10.00;99.90;;;8.03;100.00;98794.41;5029555;28;20581;-86
2021/12/01 03:43:27;;;;;;;8.70;5.47;;;10.10;99.90;;;8.03;100.00;98790.84;5029473;28;20044;-85
2021/12/01 03:45:56;;;;;;;9.07;4.88;;;10.00;99.90;;;8.01;100.00;98785.66;5028895;28;20084;-86
2021/12/01 03:48:24;;;;;;;10.88;5.38;;;10.00;99.90;;;7.98;100.00;98769.00;5029339;28;20041;-86
2021/12/01 03:50:52;;;;;;;7.45;4.82;;;10.00;99.90;;;8.01;100.00;98779.38;5029325;28;20053;-86
2021/12/01 03:53:22;;;;;;;10.07;5.22;;;10.00;99.90;;;8.00;100.00;98766.91;5029397;28;20076;-86
2021/12/01 03:55:52;;;;;;;9.55;5.07;;;10.00;99.90;;;8.00;100.00;98761.47;5027515;28;20103;-85
2021/12/01 03:58:19;;;;;;;9.02;5.57;;;10.00;99.90;;;7.97;100.00;98761.88;5029161;28;20033;-86
2021/12/01 04:00:47;;;;;;;10.32;6.20;;;9.90;99.90;;;7.94;100.00;98743.34;5029220;28;20073;-86
2021/12/01 04:03:16;;;;;;;10.77;6.05;;;9.90;99.90;;;7.98;100.00;98733.78;5027732;28;20185;-86
2021/12/01 04:05:43;;;;;;;9.07;6.15;;;9.90;99.90;;;7.95;100.00;98732.31;5028664;28;20421;-86
2021/12/01 04:08:11;;;;;;;11.00;6.40;;;9.90;99.90;;;7.92;100.00;98729.19;5029098;28;20081;-86
2021/12/01 04:10:38;;;;;;;10.43;6.32;;;9.80;99.90;;;7.93;100.00;98725.44;5029042;28;20045;-86
2021/12/01 04:13:05;;;;;;;10.23;6.38;;;9.80;99.90;;;7.93;100.00;98722.72;5028422;28;20057;-85
2021/12/01 04:15:32;;;;;;;9.75;6.35;;;9.80;99.90;;;7.89;100.00;98706.06;5028428;28;20041;-86
2021/12/01 04:18:00;;;;;;;17.00;7.18;;;9.80;99.90;;;7.89;100.00;98697.94;5029089;28;20045;-86
2021/12/01 04:20:28;;;;;;;9.00;5.82;;;9.80;99.90;;;7.89;100.00;98697.13;5028789;28;20049;-86
2021/12/01 04:22:56;;;;;;;10.38;6.38;;;9.80;99.90;;;7.88;100.00;98676.47;5028910;28;20104;-86
2021/12/01 04:25:24;;;;;;;11.63;6.22;;;9.80;99.90;;;7.85;100.00;98683.16;5028176;28;20037;-86
2021/12/01 04:27:52;;;;;;;13.43;5.85;;;9.80;99.90;;;7.83;100.00;98675.25;5028722;28;20049;-85
2021/12/01 04:30:22;;;;;;;10.40;6.00;;;9.80;99.90;;;7.82;100.00;98664.63;5028781;28;20069;-86
2021/12/01 04:32:50;;;;;;;9.05;5.57;;;9.80;99.90;;;7.79;100.00;98676.72;5027457;28;20049;-85
2021/12/01 04:35:20;;;;;;;10.95;6.13;;;9.70;99.90;;;7.78;100.00;98676.94;5028192;28;20048;-86
2021/12/01 04:37:49;;;;;;;9.75;6.13;;;9.80;99.90;;;7.77;100.00;98651.72;5028608;28;20052;-86
2021/12/01 04:40:18;;;;;;;10.77;5.63;;;9.70;99.90;;;7.75;100.00;98670.06;5027059;28;20081;-84
2021/12/01 04:42:45;;;;;;;9.30;5.70;;;9.70;99.90;;;7.75;100.00;98667.38;5028412;28;20547;-88
2021/12/01 04:45:15;;;;;;;9.77;5.80;;;9.70;99.90;;;7.77;100.00;98662.56;5028068;28;20076;-83
2021/12/01 04:47:44;;;;;;;9.80;5.78;;;9.70;99.90;;;7.79;100.00;98655.06;5028342;28;20092;-84
2021/12/01 04:50:14;;;;;;;10.50;5.20;;;9.70;99.90;;;7.74;100.00;98644.03;5028399;28;20053;-89
2021/12/01 04:52:41;;;;;;;9.38;5.32;;;9.60;99.90;;;7.71;100.00;98647.16;5028329;28;20080;-87
2021/12/01 04:55:12;;;;;;;9.45;5.20;;;9.70;99.90;;;7.70;100.00;98652.78;5027975;28;20045;-88
2021/12/01 04:57:40;;;;;;;9.60;5.85;;;9.60;99.90;;;7.69;100.00;98626.75;5027040;28;20068;-87
2021/12/01 05:00:12;;;;;;;8.85;5.05;;;9.60;99.90;;;7.72;100.00;98621.75;5027527;28;20087;-88
2021/12/01 05:02:39;;;;;;;;;;;9.60;99.90;;;7.73;100.00;98619.84;5028746;28;20041;-87
2021/12/01 05:05:07;;;;;;;9.10;4.93;;;9.60;99.90;;;7.73;100.00;98617.16;5030342;28;19928;-87
2021/12/01 05:07:34;;;;;;;6.60;4.30;;;9.60;99.90;;;7.69;100.00;98616.78;5028093;28;20041;-86
2021/12/01 05:10:02;;;;;;;7.40;4.40;;;9.60;99.90;;;7.71;100.00;98592.16;5026718;28;20488;-87
2021/12/01 05:12:30;;;;;;;8.43;4.82;;;9.60;99.90;;;7.66;100.00;98587.41;5028215;28;20072;-86
2021/12/01 05:14:58;;;;;;;9.82;4.28;;;9.60;99.90;;;7.64;100.00;98581.38;5027656;28;20067;-86
2021/12/01 05:17:25;;;;;;;8.57;4.40;;;9.50;99.90;;;7.64;100.00;98568.66;5026725;28;20121;-85
2021/12/01 05:19:52;;;;;;;7.68;3.97;;;9.50;99.90;;;7.64;100.00;98562.44;5027687;28;20072;-87
2021/12/01 05:22:19;;;;;;;7.78;4.22;;;9.60;99.90;;;7.66;100.00;98560.34;5027980;28;20044;-85
2021/12/01 05:24:47;;;;;;;5.82;3.53;;;9.60;99.90;;;7.71;100.00;98546.13;5028130;28;20077;-86
2021/12/01 05:27:14;;;;;;;7.63;3.65;;;9.50;99.90;;;7.70;100.00;98549.91;5030495;28;20136;-86
2021/12/01 05:29:43;;;;;;;7.63;3.58;;;9.50;99.90;;;7.69;100.00;98535.56;5032078;28;20081;-86
2021/12/01 05:32:11;;;;;;;5.25;3.13;;;9.50;99.90;;;7.68;100.00;98536.59;5031867;28;20068;-87
2021/12/01 05:34:38;;;;;;;7.68;3.30;;;9.60;99.90;;;7.64;100.00;98527.22;5031569;28;20041;-85
2021/12/01 05:37:05;;;;;;;6.60;3.00;;;9.60;99.90;;;7.64;100.00;98513.69;5030754;28;20180;-86
2021/12/01 05:39:33;;;;;;;5.93;2.90;;;9.60;99.90;;;7.66;100.00;98500.78;5031811;28;20051;-87
2021/12/01 05:42:01;;;;;;;6.85;3.50;;;9.50;99.90;;;7.70;100.00;98495.75;5031785;28;20536;-85
2021/12/01 05:44:30;;;;;;;5.30;3.13;;;9.60;99.90;;;7.70;100.00;98495.75;5031318;28;20068;-86
2021/12/01 05:46:59;;;;;;;6.65;3.38;;;9.50;99.90;;;7.70;100.00;98488.47;5031548;28;20494;-84
2021/12/01 05:49:26;;;;;;;5.72;3.13;;;9.50;99.90;;;7.69;100.00;98481.41;5031575;28;20129;-84
2021/12/01 05:51:54;;;;;;;6.45;2.50;;;9.50;99.90;;;7.69;100.00;98456.19;5031654;28;20041;-83
2021/12/01 05:54:21;;;;;;;6.68;3.03;;;9.50;99.90;;;7.68;100.00;98449.94;5031217;28;20502;-87
2021/12/01 05:56:48;;;;;;;7.22;3.03;;;9.50;99.90;;;7.71;100.00;98464.91;5031523;28;20076;-85
2021/12/01 05:59:16;;;;;;;6.95;2.25;;;9.50;99.90;;;7.73;100.00;98442.00;5031337;28;20511;-86
2021/12/01 06:01:43;;;;;;;5.65;3.00;;;9.50;99.90;;;7.75;100.00;98429.09;5031351;28;20049;-86
2021/12/01 06:04:12;;;;;;;5.00;2.42;;;9.50;99.90;;;7.72;100.00;98437.63;5031031;28;20522;-89
2021/12/01 06:06:39;;;;;;;4.90;2.20;;;9.50;99.90;;;7.75;100.00;98430.94;5031380;28;20082;-85
2021/12/01 06:09:07;;;;;;;4.60;2.30;;;9.50;99.90;;;7.74;100.00;98413.88;5031259;28;20058;-86
2021/12/01 06:11:34;;;;;;;4.47;2.55;;;9.50;99.90;;;7.73;100.00;98409.53;5031815;28;20067;-86
2021/12/01 06:14:01;;;;;;;4.20;2.22;;;9.50;99.90;;;7.73;100.00;98404.09;5050821;28;20125;-86
2021/12/01 06:16:29;;;;;;;6.05;2.40;;;9.50;99.90;;;7.73;100.00;98404.09;5050848;28;20098;-85
2021/12/01 06:18:56;;;;;;;5.60;2.47;;;9.60;99.90;;;7.72;100.00;98407.84;5050907;28;20151;-86
2021/12/01 06:21:25;;;;;;;4.13;2.22;;;9.60;99.90;;;7.72;100.00;98386.19;5051115;28;20099;-86
2021/12/01 06:23:52;;;;;;;5.45;2.30;;;9.60;99.90;;;7.76;100.00;98392.81;5050868;28;20053;-85
2021/12/01 06:26:20;;;;;;;5.22;2.53;;;9.60;99.90;;;7.73;100.00;98387.84;5050280;28;20091;-86
2021/12/01 06:28:47;;;;;;;4.88;2.33;;;9.60;99.90;;;7.71;100.00;98387.25;5050874;28;20652;-86
2021/12/01 06:31:14;;;;;;;5.40;2.60;;;9.60;99.90;;;7.71;100.00;98383.69;5050746;28;20041;-86
2021/12/01 06:33:42;;;;;;;5.10;2.58;;;9.60;99.90;;;7.75;100.00;98380.34;5044336;28;20158;-86
2021/12/01 06:36:09;;;;;;;4.93;2.17;;;9.50;99.90;;;7.76;100.00;98370.34;5030039;28;20042;-88
2021/12/01 06:38:42;;;;;;;5.90;2.30;;;9.50;99.90;;;7.73;100.00;98377.03;5023314;28;20033;-89
2021/12/01 06:41:10;;;;;;;8.02;2.33;;;9.50;99.90;;;7.73;100.00;98355.38;5029156;28;20037;-88
2021/12/01 06:43:37;;;;;;;5.28;2.20;;;9.60;99.90;;;7.72;100.00;98369.94;5029149;28;20610;-88
2021/12/01 06:46:05;;;;;;;4.53;2.20;;;9.60;99.90;;;7.72;100.00;98353.69;5039959;28;20094;-88
2021/12/01 06:48:32;;;;;;;4.50;2.17;;;9.60;99.90;;;7.71;100.00;98352.06;5036529;28;20049;-86
2021/12/01 06:50:59;;;;;;;4.55;2.35;;;9.60;99.90;;;7.70;100.00;98357.69;5030603;28;20150;-87
2021/12/01 06:53:27;;;;;;;4.13;2.30;;;9.60;99.90;;;7.68;100.00;98351.66;5030374;28;20073;-88
2021/12/01 06:55:56;;;;;;;3.58;2.13;;;9.50;99.90;;;7.64;100.00;98353.97;5043204;28;20090;-87
2021/12/01 06:58:23;;;;;;;5.45;2.08;;;9.50;99.90;;;7.60;100.00;98358.16;5044185;28;20053;-87
2021/12/01 07:00:50;;;;;;;5.43;2.67;;;9.50;99.90;;;7.58;100.00;98349.44;5030466;28;20037;-88
2021/12/01 07:03:18;;;;;;;4.05;2.40;;;9.50;99.90;;;7.54;100.00;98338.22;5030907;28;20049;-88
2021/12/01 07:05:45;;;;;;;4.75;2.55;;;9.50;99.90;;;7.53;100.00;98339.25;5029422;28;20085;-84
2021/12/01 07:08:12;;;;;;;3.90;2.35;;;9.50;99.90;;;7.53;100.00;98330.31;5026409;28;20122;-84
2021/12/01 07:10:40;;;;;;;5.45;2.55;;;9.50;99.90;;;7.50;100.00;98336.16;5021640;28;20038;-82
2021/12/01 07:13:08;;;;;;;6.18;2.72;;;9.50;99.90;;;7.44;100.00;98333.28;5035595;28;20041;-81
2021/12/01 07:15:36;;;;;;;5.13;2.63;;;9.50;99.90;;;7.47;100.00;98328.50;5036008;28;20095;-82
2021/12/01 07:18:03;;;;;;;4.93;2.45;;;9.50;99.90;;;7.48;100.00;98324.72;5029816;28;20072;-83
2021/12/01 07:20:30;;;;;;;5.63;2.90;;;9.50;99.90;;;7.47;100.00;98320.38;5029213;28;20047;-84
2021/12/01 07:22:58;;;;;;;6.53;2.30;;;9.40;99.90;;;7.41;100.00;98317.47;5029815;28;20107;-84
2021/12/01 07:25:25;;;;;;;18.00;3.03;;;9.50;99.90;;;7.41;100.00;98309.38;5029591;28;20057;-84
2021/12/01 07:27:52;;;;;;;5.13;2.50;;;9.40;99.90;;;7.40;100.00;98306.88;5029274;28;20069;-84
2021/12/01 07:30:21;;;;;;;5.10;2.38;;;9.50;99.90;;;7.41;100.00;98293.13;5027000;28;20136;-84
2021/12/01 07:32:50;;;;;;;5.78;2.50;;;9.40;99.90;;;7.46;100.00;98289.75;5034169;28;20106;-84
2021/12/01 07:35:18;;;;;;;6.13;2.60;;;9.40;99.90;;;7.46;100.00;98280.81;5029720;28;20107;-84
2021/12/01 07:37:46;;;;;;;4.35;2.35;;;9.40;99.90;;;7.47;100.00;98282.47;5029263;28;20501;-84
2021/12/01 07:40:13;;;;;;;5.78;2.00;;;9.40;99.90;;;7.48;100.00;98281.41;5027060;28;20472;-84
2021/12/01 07:42:41;;;;;;;4.43;2.20;;;9.40;99.90;;;7.48;100.00;98278.72;5029477;28;20065;-83
2021/12/01 07:45:10;;;;;;;5.38;2.08;;;9.40;99.90;;;7.49;100.00;98283.09;5029104;28;20045;-83
2021/12/01 07:47:39;;;;;;;4.55;1.80;;;9.40;99.90;;;7.48;100.00;98254.34;5028427;28;20033;-85
2021/12/01 07:50:07;;;;;;;2.80;1.40;;;9.40;99.90;;;7.54;100.00;98256.16;5027012;28;20069;-88
2021/12/01 07:52:35;;;;;;;3.15;1.40;;;9.40;99.90;;;7.55;100.00;98228.88;5029384;28;20041;-86
2021/12/01 07:55:04;;;;;;;3.03;1.25;;;9.50;99.90;;;7.57;100.00;98239.50;5029004;28;20049;-87
2021/12/01 07:57:31;;;;;;;3.88;1.33;;;9.50;99.90;;;7.64;100.00;98248.41;5029287;28;20433;-87
2021/12/01 07:59:58;;;;;;;2.35;1.08;;;9.50;99.90;;;7.66;100.00;98240.88;5018036;28;20045;-85
2021/12/01 08:02:26;;;;;;;2.92;0.90;;;9.50;99.90;;;7.70;100.00;98236.69;5008993;28;20050;-84
2021/12/01 08:04:55;;;;;;;4.95;1.35;;;9.60;99.90;;;7.72;100.00;98240.00;5008740;28;20085;-85
2021/12/01 08:07:22;;;;;;;2.63;1.13;;;9.60;99.90;;;7.76;100.00;98233.06;5016204;28;20034;-85
2021/12/01 08:09:49;;;;;;;3.63;1.10;;;9.60;99.90;;;7.76;100.00;98230.38;5026236;28;20099;-85
2021/12/01 08:12:17;;;;;;;3.25;1.00;;;9.60;99.90;;;7.77;100.00;98248.28;5028702;28;20043;-84
2021/12/01 08:14:44;;;;;;;4.70;1.25;;;9.60;99.90;;;7.79;100.00;98239.94;5046153;22;20022;-90
2021/12/01 08:17:12;;;;;;;2.97;1.10;;;9.60;99.90;;;7.79;100.00;98239.94;4997283;28;20568;-88
2021/12/01 08:19:39;;;;;;;2.20;0.93;;;9.60;99.90;;;7.81;100.00;98229.72;5004229;28;20088;-89
2021/12/01 08:22:09;;;;;;;3.33;1.42;;;9.70;99.90;;;7.80;100.00;98226.16;5009117;28;20514;-90
2021/12/01 08:24:37;;;;;;;3.97;1.50;;;9.70;99.90;;;7.79;100.00;98227.22;5008544;28;20042;-90
2021/12/01 08:27:05;;;;;;;2.95;1.23;;;9.70;99.90;;;7.82;100.00;98234.06;4999813;28;20051;-91
2021/12/01 08:29:33;;;;;;;3.65;1.30;;;9.70;99.90;;;7.82;100.00;98212.41;4986420;28;20077;-89
2021/12/01 08:32:00;;;;;;;2.35;1.10;;;9.70;99.90;;;7.85;100.00;98221.97;5002876;28;20465;-90
2021/12/01 08:34:28;;;;;;;4.57;1.40;;;9.70;99.90;;;7.89;100.00;98217.75;4995717;28;20422;-89
2021/12/01 08:36:55;;;;;;;4.35;1.25;;;9.70;99.90;;;7.88;100.00;98226.94;4994246;28;20529;-90
2021/12/01 08:39:24;;;;;;;2.97;0.90;;;9.70;99.90;;;7.85;100.00;98217.38;4994003;28;20043;-90
2021/12/01 08:41:51;;;;;;;2.05;0.80;;;9.70;99.90;;;7.88;100.00;98216.09;4988751;28;20051;-91
2021/12/01 08:44:20;;;;;;;2.45;0.98;;;9.80;99.90;;;7.89;100.00;98217.75;5004882;28;20132;-89
2021/12/01 08:46:47;;;;;;;3.03;1.10;;;9.70;99.90;;;7.90;100.00;98211.28;4993965;28;20065;-91
2021/12/01 08:49:14;;;;;;;2.22;0.85;;;9.80;99.90;;;7.94;100.00;98196.22;4988949;28;20050;-90
2021/12/01 08:51:42;;;;;;;3.40;1.05;;;9.80;99.90;;;7.94;100.00;98204.34;5000564;28;20042;-90
2021/12/01 08:54:13;;;;;;;3.80;0.82;;;9.80;99.90;;;7.98;100.00;98194.75;4994017;28;20093;-91
2021/12/01 08:56:42;;;;;;;2.63;0.80;;;9.80;99.90;;;7.96;100.00;98202.28;5002080;28;20038;-89
2021/12/01 08:59:10;;;;;;;3.85;1.05;;;9.80;99.90;;;7.91;100.00;98183.97;4977924;28;20561;-89
2021/12/01 09:45:25;;;;;;;2.45;0.70;;;10.00;99.90;;;8.19;100.00;98148.22;4987176;22;20048;-92
2021/12/01 09:48:30;;;;;;;1.88;0.52;;;10.00;99.90;;;8.23;100.00;98132.34;5037016;28;20045;-92
2021/12/01 09:50:58;;;;;;;3.70;0.73;;;10.10;99.90;;;8.19;100.00;98117.63;5034807;28;20051;-92
2021/12/01 09:53:28;;;;;;;2.05;0.70;;;10.10;99.90;;;8.22;100.00;98126.13;5044933;28;20075;-91
2021/12/01 09:56:00;;;;;;;1.73;0.60;;;10.10;99.90;;;8.19;100.00;98125.75;5044644;28;20539;-93
2021/12/01 09:58:42;;;;;;;;;;;;;;;;;;;;;
2021/12/01 10:01:39;;;;;;;2.33;0.60;;;10.10;99.90;;;8.23;100.00;98127.75;5048214;28;20047;-93
2021/12/01 10:04:19;;;;;;;2.75;0.65;;;10.10;99.90;;;8.22;100.00;98114.44;5037246;28;20075;-91
2021/12/01 10:07:15;;;;;;;2.15;0.70;;;10.10;99.90;;;8.21;100.00;98112.78;5047428;28;20095;-92
2021/12/01 10:10:21;;;;;;;;;;;;;;;;;;;;;
2021/12/01 10:13:19;;;;;;;;;;;;;;;;;;;;;
2021/12/01 10:16:05;;;;;;;1.20;0.52;;;10.10;99.90;;;8.19;100.00;98093.22;5055305;28;20110;-93
2021/12/01 10:18:44;;;;;;;1.67;0.60;;;10.10;99.90;;;8.15;100.00;98084.72;5032592;28;20057;-92
2021/12/01 10:21:30;;;;;;;6.85;0.75;;;10.10;99.90;;;8.18;100.00;98081.53;5040924;28;20416;-92
2021/12/01 10:24:01;;;;;;;1.45;0.55;;;10.10;99.90;;;8.18;100.00;98076.13;5053796;28;20037;-92
2021/12/01 10:26:32;;;;;;;2.35;0.88;;;10.10;99.90;;;8.22;100.00;98079.19;5049185;28;20059;-91
2021/12/01 10:29:02;;;;;;;2.10;0.80;;;10.10;99.90;;;8.20;100.00;98074.00;5047826;28;20041;-91
2021/12/01 10:31:39;;;;;;;1.90;0.70;;;10.10;99.90;;;8.22;100.00;98080.06;5039635;28;20505;-88
2021/12/01 10:34:40;;;;;;;2.90;0.60;;;10.10;99.90;;;8.25;100.00;98076.03;5055033;28;20051;-92
2021/12/01 10:37:12;;;;;;;1.33;0.50;;;10.10;99.90;;;8.27;100.00;98078.53;5038125;28;20158;-88
2021/12/01 10:39:43;;;;;;;1.23;0.52;;;10.10;99.90;;;8.26;100.00;98066.03;5041945;28;20041;-88
2021/12/01 10:42:14;;;;;;;1.00;0.52;;;10.10;99.90;;;8.24;100.00;98063.53;5054552;28;20048;-89
2021/12/01 10:44:57;;;;;;;3.33;1.02;;;10.10;99.90;;;8.19;100.00;98053.41;5045289;28;20066;-88
2021/12/01 10:47:25;;;;;;;1.67;0.52;;;10.10;99.90;;;8.26;100.00;98049.78;5049485;28;20115;-89
2021/12/01 10:49:59;;;;;;;1.50;0.50;;;10.10;99.90;;;8.28;100.00;98044.94;5048162;28;22308;-87
2021/12/01 10:52:35;;;;;;;1.15;0.60;;;10.20;99.90;;;8.32;100.00;98038.00;5051602;28;20119;-87
2021/12/01 10:55:11;;;;;;;4.47;0.63;;;10.20;99.90;;;8.33;100.00;98026.94;5025682;28;20056;-88
2021/12/01 10:57:42;;;;;;;1.15;0.50;;;10.20;99.90;;;8.32;100.00;98032.56;5051560;28;20043;-88
2021/12/01 11:00:31;;;;;;;1.48;0.63;;;10.20;99.90;;;8.36;100.00;98023.78;5047604;28;20045;-93
2021/12/01 11:03:29;;;;;;;1.65;0.52;;;10.20;99.90;;;8.35;100.00;98018.59;5053247;28;20080;-88
2021/12/01 11:06:08;;;;;;;1.13;0.60;;;10.20;99.90;;;8.39;100.00;98017.06;5027949;28;20049;-87
2021/12/01 11:08:39;;;;;;;2.20;0.70;;;10.20;99.90;;;8.36;100.00;98010.22;5039352;28;20485;-85
2021/12/01 11:11:09;;;;;;;1.55;0.70;;;10.20;99.90;;;8.37;100.00;98009.16;5044438;28;20046;-88
2021/12/01 11:13:39;;;;;;;3.53;0.60;;;10.20;99.90;;;8.40;100.00;98003.28;5052546;28;20040;-88
2021/12/01 11:16:10;;;;;;;2.85;0.60;;;10.20;99.90;;;8.40;100.00;98002.47;5063158;28;20080;-86
2021/12/01 11:18:40;;;;;;;1.95;0.65;;;10.20;99.90;;;8.42;100.00;98003.09;5015783;28;20057;-85
2021/12/01 11:21:11;;;;;;;1.45;0.70;;;10.30;99.90;;;8.39;100.00;97995.38;5051933;28;20044;-86
2021/12/01 11:23:41;;;;;;;1.45;0.75;;;10.30;99.90;;;8.37;100.00;98005.63;5031633;28;20045;-87
2021/12/01 11:26:14;;;;;;;1.77;0.70;;;10.30;99.90;;;8.35;100.00;98002.31;5038694;28;20041;-87